Time;durP1;ratioP1;P1;durP2;ratioP2;P2;SDS_P1;SDS_P2;PMS_P1;PMS_P2;Temp;Humidity;BMP_temperature;BMP_pressure;BME280_temperature;BME280_humidity;BME280_pressure;Samples;Min_cycle;Max_cycle;Signal;HPM_P1;HPM_P2
2023/12/03 00:01:33;;;;;;;52.83;39.63;;;;;;;-0.12;100.00;101841.66;4986305;28;20073;-78
2023/12/03 00:03:58;;;;;;;54.88;39.38;;;;;;;-0.08;100.00;101832.97;4988606;28;20022;-79
2023/12/03 00:06:24;;;;;;;55.63;40.10;;;;;;;-0.08;100.00;101839.00;4968350;28;20018;-78
2023/12/03 00:08:49;;;;;;;54.58;40.17;;;;;;;-0.04;100.00;101839.81;4984392;28;20058;-78
2023/12/03 00:11:14;;;;;;;55.63;40.15;;;;;;;-0.03;100.00;101837.19;4970971;28;20101;-78
2023/12/03 00:13:40;;;;;;;55.47;39.67;;;;;;;-0.01;100.00;101830.28;4987511;28;20058;-79
2023/12/03 00:16:05;;;;;;;53.03;37.40;;;;;;;0.02;100.00;101838.91;4986315;28;20027;-78
2023/12/03 00:18:31;;;;;;;59.00;39.85;;;;;;;0.04;100.00;101844.91;4969906;28;20493;-78
2023/12/03 00:20:56;;;;;;;51.10;38.25;;;;;;;0.05;100.00;101838.84;4982810;28;20184;-78
2023/12/03 00:23:22;;;;;;;52.40;38.17;;;;;;;0.08;100.00;101843.97;4984003;28;20077;-78
2023/12/03 00:25:47;;;;;;;53.63;38.85;;;;;;;0.10;100.00;101843.06;4988051;28;20109;-78
2023/12/03 00:28:12;;;;;;;52.05;39.13;;;;;;;0.12;100.00;101845.63;4969516;28;20093;-78
2023/12/03 00:30:38;;;;;;;52.75;38.30;;;;;;;0.13;100.00;101848.19;4974789;28;20446;-78
2023/12/03 00:33:03;;;;;;;49.08;37.53;;;;;;;0.17;100.00;101843.84;4984211;28;20026;-78
2023/12/03 00:35:29;;;;;;;49.83;35.92;;;;;;;0.18;100.00;101850.72;4987634;28;20026;-78
2023/12/03 00:37:54;;;;;;;46.55;37.53;;;;;;;0.19;100.00;101857.59;4989809;28;20126;-77
2023/12/03 00:40:19;;;;;;;49.13;36.45;;;;;;;0.21;100.00;101846.34;4971444;28;20517;-78
2023/12/03 00:42:48;;;;;;;46.90;36.45;;;;;;;0.22;100.00;101849.78;4989181;28;20522;-78
2023/12/03 00:45:14;;;;;;;45.50;35.25;;;;;;;0.21;100.00;101853.25;4989505;28;20026;-78
2023/12/03 00:47:39;;;;;;;47.13;36.28;;;;;;;0.22;100.00;101857.56;4989477;28;20081;-78
2023/12/03 00:50:05;;;;;;;46.70;36.30;;;;;;;0.23;100.00;101851.50;4980665;28;20086;-78
2023/12/03 00:52:30;;;;;;;45.95;36.10;;;;;;;0.22;100.00;101857.56;4986258;28;20503;-78
2023/12/03 00:54:56;;;;;;;46.22;36.35;;;;;;;0.23;100.00;101854.09;4971148;28;20034;-78
2023/12/03 00:57:21;;;;;;;46.63;37.22;;;;;;;0.22;100.00;101857.56;4984624;28;20041;-78
2023/12/03 00:59:46;;;;;;;46.72;35.78;;;;;;;0.23;100.00;101859.25;4977815;28;20098;-78
2023/12/03 01:02:12;;;;;;;45.47;36.78;;;;;;;0.24;100.00;101858.38;4967020;28;20586;-78
2023/12/03 01:04:37;;;;;;;46.13;36.50;;;;;;;0.24;100.00;101855.78;4973271;28;20034;-78
2023/12/03 01:07:03;;;;;;;44.33;36.00;;;;;;;0.24;100.00;101858.38;4991240;28;20105;-78
2023/12/03 01:09:30;;;;;;;46.33;36.92;;;;;;;0.24;100.00;101867.00;4968257;28;20026;-78
2023/12/03 01:11:57;;;;;;;52.60;38.75;;;;;;;0.22;100.00;101868.75;4991252;28;20117;-78
2023/12/03 01:14:23;;;;;;;46.85;36.72;;;;;;;0.25;100.00;101867.84;4972509;28;20134;-78
2023/12/03 01:16:48;;;;;;;44.40;35.90;;;;;;;0.25;100.00;101868.72;4973071;28;20118;-78
2023/12/03 01:19:14;;;;;;;46.85;37.58;;;;;;;0.25;100.00;101873.88;4989343;28;20033;-78
2023/12/03 01:21:39;;;;;;;45.33;35.10;;;;;;;0.25;100.00;101865.28;4989083;28;20400;-78
2023/12/03 01:24:04;;;;;;;45.80;36.88;;;;;;;0.27;100.00;101876.44;4969492;28;20030;-78
2023/12/03 01:26:30;;;;;;;49.38;37.53;;;;;;;0.26;100.00;101874.75;4984576;28;20027;-78
2023/12/03 01:28:56;;;;;;;44.67;36.40;;;;;;;0.28;100.00;101871.25;4969104;28;20036;-79
2023/12/03 01:31:21;;;;;;;49.33;36.45;;;;;;;0.27;100.00;101876.44;4971162;28;20364;-79
2023/12/03 01:33:47;;;;;;;48.13;36.45;;;;;;;0.27;100.00;101871.28;4974154;28;20097;-79
2023/12/03 01:36:12;;;;;;;44.00;34.53;;;;;;;0.27;100.00;101879.03;4991736;28;20571;-79
2023/12/03 01:38:37;;;;;;;43.47;34.15;;;;;;;0.26;100.00;101875.59;4971760;28;20181;-79
2023/12/03 01:41:03;;;;;;;44.20;34.30;;;;;;;0.26;100.00;101877.34;4990973;28;20542;-79
2023/12/03 01:43:28;;;;;;;46.38;35.50;;;;;;;0.23;100.00;101880.81;4984785;28;20482;-79
2023/12/03 01:45:54;;;;;;;47.97;34.72;;;;;;;0.22;100.00;101883.44;4992528;28;20014;-79
2023/12/03 01:48:19;;;;;;;45.33;33.92;;;;;;;0.18;100.00;101877.44;4991767;28;20022;-79
2023/12/03 01:50:47;;;;;;;47.78;34.75;;;;;;;0.13;100.00;101874.06;4992394;28;20056;-79
2023/12/03 01:53:16;;;;;;;44.85;34.40;;;;;;;0.11;100.00;101881.00;4991370;28;20121;-79
2023/12/03 01:55:41;;;;;;;48.35;36.22;;;;;;;0.10;100.00;101886.19;4990713;28;20029;-79
2023/12/03 01:58:07;;;;;;;53.20;37.00;;;;;;;0.06;100.00;101880.22;4989883;28;20030;-79
2023/12/03 02:00:32;;;;;;;53.22;39.78;;;;;;;0.06;100.00;101889.72;4963413;28;20027;-79
2023/12/03 02:03:00;;;;;;;53.88;40.10;;;;;;;0.02;100.00;101881.16;4969717;28;20494;-78
2023/12/03 02:05:26;;;;;;;54.25;40.17;;;;;;;0.03;100.00;101884.59;4972878;28;20423;-77
2023/12/03 02:07:51;;;;;;;52.03;40.13;;;;;;;0.01;100.00;101892.38;4972627;28;20086;-77
2023/12/03 02:10:17;;;;;;;57.72;41.33;;;;;;;0.02;100.00;101888.91;4985206;28;20049;-78
2023/12/03 02:12:42;;;;;;;57.40;42.20;;;;;;;0.01;100.00;101881.16;4990714;28;20057;-77
2023/12/03 02:15:08;;;;;;;54.85;41.08;;;;;;;0.03;100.00;101893.19;4987651;28;20030;-78
2023/12/03 02:17:34;;;;;;;56.47;42.03;;;;;;;0.04;100.00;101886.28;4990392;28;20471;-77
2023/12/03 02:19:59;;;;;;;57.47;42.67;;;;;;;0.04;100.00;101891.47;4989102;28;20050;-77
2023/12/03 02:22:25;;;;;;;55.28;41.55;;;;;;;0.07;100.00;101896.59;4970524;28;20044;-77
2023/12/03 02:24:50;;;;;;;56.70;41.50;;;;;;;0.09;100.00;101893.09;4992264;28;20117;-78
2023/12/03 02:27:15;;;;;;;55.47;40.78;;;;;;;0.09;100.00;101903.47;4989619;28;20037;-78
2023/12/03 02:29:46;;;;;;;53.25;39.63;;;;;;;0.13;100.00;101896.50;4988648;28;20093;-78
2023/12/03 02:32:12;;;;;;;54.58;38.60;;;;;;;0.14;100.00;101893.03;4956302;28;20495;-78
2023/12/03 02:34:37;;;;;;;49.58;37.70;;;;;;;0.15;100.00;101894.75;4988938;28;20066;-78
2023/12/03 02:37:03;;;;;;;49.75;36.90;;;;;;;0.16;100.00;101893.88;4988831;28;20449;-78
2023/12/03 02:39:28;;;;;;;48.80;36.35;;;;;;;0.17;100.00;101896.44;4970273;28;20030;-78
2023/12/03 02:41:53;;;;;;;46.63;35.55;;;;;;;0.18;100.00;101897.28;4988310;28;20025;-78
2023/12/03 02:44:18;;;;;;;45.72;35.10;;;;;;;0.19;100.00;101899.00;4971186;28;20034;-78
2023/12/03 02:46:47;;;;;;;47.22;35.10;;;;;;;0.22;100.00;101901.53;4972184;28;20076;-78
2023/12/03 02:49:12;;;;;;;47.00;35.10;;;;;;;0.22;100.00;101898.97;4970375;28;20046;-78
2023/12/03 02:51:38;;;;;;;48.95;34.28;;;;;;;0.20;100.00;101892.94;4990555;28;20128;-78
2023/12/03 02:54:03;;;;;;;46.28;34.72;;;;;;;0.18;100.00;101897.28;4987172;28;20034;-78
2023/12/03 02:56:28;;;;;;;46.28;34.20;;;;;;;0.18;100.00;101892.97;4988760;28;20029;-80
2023/12/03 02:58:53;;;;;;;46.97;34.40;;;;;;;0.19;100.00;101899.84;4971963;28;20153;-78
2023/12/03 03:01:19;;;;;;;48.22;36.08;;;;;;;0.17;100.00;101896.44;4960045;28;20493;-78
2023/12/03 03:03:44;;;;;;;46.90;33.95;;;;;;;0.15;100.00;101903.38;4972031;28;20483;-78
2023/12/03 03:06:09;;;;;;;47.55;34.08;;;;;;;0.12;100.00;101893.06;4972268;28;20494;-78
2023/12/03 03:08:35;;;;;;;45.80;34.45;;;;;;;0.10;100.00;101889.66;4986597;28;20026;-78
2023/12/03 03:11:01;;;;;;;45.22;34.22;;;;;;;0.08;100.00;101890.53;4970181;28;20575;-78
2023/12/03 03:13:26;;;;;;;47.28;34.30;;;;;;;0.04;100.00;101891.47;4988213;28;20546;-78
2023/12/03 03:15:52;;;;;;;48.88;34.95;;;;;;;0.01;100.00;101888.94;4973206;28;20022;-78
2023/12/03 03:18:17;;;;;;;47.88;35.30;;;;;;;-0.05;100.00;101897.59;4971900;28;20061;-78
2023/12/03 03:20:43;;;;;;;51.05;35.55;;;;;;;-0.08;100.00;101893.31;4987697;28;20110;-78
2023/12/03 03:23:08;;;;;;;47.58;34.67;;;;;;;-0.12;100.00;101894.25;4989146;28;20023;-78
2023/12/03 03:25:34;;;;;;;46.38;35.17;;;;;;;-0.15;100.00;101894.28;4986618;28;20447;-78
2023/12/03 03:27:59;;;;;;;49.40;35.63;;;;;;;-0.18;100.00;101899.50;4987222;28;20450;-79
2023/12/03 03:30:24;;;;;;;49.17;35.42;;;;;;;-0.22;100.00;101902.13;4987725;28;20033;-79
2023/12/03 03:32:49;;;;;;;49.97;36.30;;;;;;;-0.23;100.00;101888.34;4990495;28;20097;-79
2023/12/03 03:35:15;;;;;;;47.22;35.58;;;;;;;-0.25;100.00;101887.53;4988973;28;20046;-79
2023/12/03 03:37:41;;;;;;;49.65;36.55;;;;;;;-0.28;100.00;101897.91;4988596;28;20081;-79
2023/12/03 03:40:07;;;;;;;47.05;35.90;;;;;;;-0.29;100.00;101900.50;4987917;28;20045;-79
2023/12/03 03:42:32;;;;;;;50.05;35.88;;;;;;;-0.32;100.00;101904.00;4970444;28;20026;-79
2023/12/03 03:45:00;;;;;;;48.75;35.65;;;;;;;-0.36;100.00;101899.72;4978535;28;20014;-79
2023/12/03 03:47:25;;;;;;;51.70;36.17;;;;;;;-0.39;100.00;101899.78;4972470;28;20027;-79
2023/12/03 03:49:51;;;;;;;50.72;35.85;;;;;;;-0.40;100.00;101900.63;4981060;28;20093;-79
2023/12/03 03:52:16;;;;;;;47.55;34.50;;;;;;;-0.47;100.00;101898.97;4981706;28;20038;-80
2023/12/03 03:54:41;;;;;;;50.72;35.45;;;;;;;-0.49;100.00;101900.72;4972313;28;20037;-79
2023/12/03 03:57:07;;;;;;;49.40;35.63;;;;;;;-0.52;100.00;101904.19;4971928;28;20038;-79
2023/12/03 03:59:33;;;;;;;48.25;35.35;;;;;;;-0.59;100.00;101906.88;4959439;28;20421;-79
2023/12/03 04:01:58;;;;;;;46.55;35.65;;;;;;;-0.59;100.00;101912.91;4977422;28;20031;-78
2023/12/03 04:04:23;;;;;;;49.63;35.65;;;;;;;-0.62;100.00;101915.53;4970613;28;20023;-78
2023/12/03 04:06:49;;;;;;;49.28;35.63;;;;;;;-0.64;100.00;101915.53;4952612;28;20045;-78
2023/12/03 04:09:14;;;;;;;49.10;36.58;;;;;;;-0.65;100.00;101908.66;4963977;28;20044;-78
2023/12/03 04:11:45;;;;;;;49.30;35.95;;;;;;;-0.70;100.00;101915.59;4962765;28;20022;-78
2023/12/03 04:14:18;;;;;;;48.83;36.35;;;;;;;-0.72;100.00;101919.94;4985878;28;20048;-78
2023/12/03 04:16:44;;;;;;;49.40;36.80;;;;;;;-0.80;100.00;101916.59;4972020;28;20363;-78
2023/12/03 04:19:10;;;;;;;50.60;35.88;;;;;;;-0.78;100.00;101917.41;4988579;28;20054;-78
2023/12/03 04:21:36;;;;;;;50.22;35.65;;;;;;;-0.86;100.00;101918.34;4971119;28;20038;-78
2023/12/03 04:24:02;;;;;;;45.97;35.42;;;;;;;-0.90;100.00;101920.09;4970828;28;20493;-78
2023/12/03 04:26:28;;;;;;;54.83;37.25;;;;;;;-0.93;100.00;101924.44;4969907;28;20168;-78
2023/12/03 04:28:54;;;;;;;49.08;35.00;;;;;;;-0.92;100.00;101921.84;4967925;28;20493;-77
2023/12/03 04:31:22;;;;;;;51.35;36.60;;;;;;;-0.97;100.00;101926.19;4988076;28;20121;-78
2023/12/03 04:33:51;;;;;;;55.97;37.97;;;;;;;-0.96;100.00;101930.50;4986235;28;20031;-78
2023/12/03 04:36:22;;;;;;;51.35;35.38;;;;;;;-0.98;100.00;101927.06;4968099;28;20030;-77
2023/12/03 04:38:48;;;;;;;52.38;36.17;;;;;;;-1.03;100.00;101926.25;4989276;28;20073;-77
2023/12/03 04:41:13;;;;;;;53.05;36.53;;;;;;;-1.08;100.00;101922.88;4976748;28;20061;-77
2023/12/03 04:43:39;;;;;;;52.17;37.28;;;;;;;-1.12;100.00;101926.34;4971466;28;20027;-77
2023/12/03 04:46:05;;;;;;;52.92;36.78;;;;;;;-1.11;100.00;101931.50;4990060;28;20486;-77
2023/12/03 04:48:31;;;;;;;55.00;37.13;;;;;;;-1.15;100.00;101934.13;4973329;28;20516;-77
2023/12/03 04:50:58;;;;;;;55.40;37.70;;;;;;;-1.17;100.00;101928.13;4991761;28;20035;-77
2023/12/03 04:53:23;;;;;;;54.17;37.00;;;;;;;-1.20;100.00;101933.28;4974010;28;20031;-77
2023/12/03 04:55:49;;;;;;;57.10;38.17;;;;;;;-1.23;100.00;101929.00;4972996;28;20042;-77
2023/12/03 04:58:14;;;;;;;56.10;38.42;;;;;;;-1.25;100.00;101928.16;4986738;28;20026;-76
2023/12/03 05:00:39;;;;;;;52.05;37.38;;;;;;;-1.26;100.00;101929.00;4967761;28;20062;-77
2023/12/03 05:03:05;;;;;;;56.78;38.40;;;;;;;-1.33;100.00;101935.97;4973752;28;20033;-78
2023/12/03 05:05:30;;;;;;;57.25;38.45;;;;;;;-1.34;100.00;101931.66;4973358;28;20494;-78
2023/12/03 05:07:55;;;;;;;56.17;39.03;;;;;;;-1.35;100.00;101937.69;4971199;28;20081;-78
2023/12/03 05:10:21;;;;;;;61.63;40.72;;;;;;;-1.40;100.00;101936.00;4987993;28;20532;-78
2023/12/03 05:12:46;;;;;;;59.20;40.85;;;;;;;-1.38;100.00;101940.28;4985229;28;20509;-78
2023/12/03 05:15:11;;;;;;;67.47;42.95;;;;;;;-1.43;100.00;101947.22;4974674;28;20030;-78
2023/12/03 05:17:38;;;;;;;67.07;43.10;;;;;;;-1.43;100.00;101947.22;4972197;28;20486;-78
2023/12/03 05:20:04;;;;;;;66.60;44.53;;;;;;;-1.46;100.00;101949.81;4969657;28;20042;-78
2023/12/03 05:22:29;;;;;;;65.82;43.45;;;;;;;-1.48;100.00;101943.81;4972732;28;20022;-78
2023/12/03 05:24:55;;;;;;;68.32;45.22;;;;;;;-1.50;100.00;101945.56;4991408;28;20041;-79
2023/12/03 05:27:20;;;;;;;66.47;45.88;;;;;;;-1.52;100.00;101947.28;4992212;28;20027;-78
2023/12/03 05:29:46;;;;;;;75.45;46.85;;;;;;;-1.50;100.00;101950.72;4990137;28;20417;-78
2023/12/03 05:32:12;;;;;;;73.40;46.58;;;;;;;-1.53;100.00;101945.56;4986693;28;20034;-79
2023/12/03 05:34:37;;;;;;;72.57;45.70;;;;;;;-1.52;100.00;101946.44;4972498;28;20026;-78
2023/12/03 05:37:04;;;;;;;72.97;46.72;;;;;;;-1.57;100.00;101946.47;4973097;28;20144;-79
2023/12/03 05:39:29;;;;;;;70.38;45.67;;;;;;;-1.61;100.00;101943.03;4988749;28;20058;-78
2023/12/03 05:41:54;;;;;;;38.60;13.48;;;;;;;-1.52;100.00;101947.28;4974587;28;20128;-78
2023/12/03 05:44:20;;;;;;;64.80;42.65;;;;;;;-1.63;100.00;101949.06;4990262;28;20014;-79
2023/12/03 05:46:45;;;;;;;31.27;12.50;;;;;;;-1.54;100.00;101954.19;4990907;28;20040;-79
2023/12/03 05:49:11;;;;;;;66.47;42.47;;;;;;;-1.65;100.00;101945.63;4983957;28;20483;-79
2023/12/03 05:51:36;;;;;;;62.67;41.42;;;;;;;-1.68;100.00;101949.09;4970103;28;20037;-79
2023/12/03 05:54:02;;;;;;;64.20;41.05;;;;;;;-1.71;100.00;101945.66;4987042;28;20027;-78
2023/12/03 05:56:28;;;;;;;27.67;11.75;;;;;;;-1.63;100.00;101954.22;4972660;28;20034;-79
2023/12/03 05:58:53;;;;;;;31.23;12.55;;;;;;;-1.65;100.00;101956.81;4978529;28;20026;-79
2023/12/03 06:01:23;;;;;;;61.05;40.92;;;;;;;-1.76;100.00;101952.59;4990367;28;20545;-78
2023/12/03 06:03:48;;;;;;;27.83;11.43;;;;;;;-1.66;100.00;101960.25;4973766;28;20026;-79
2023/12/03 06:06:17;;;;;;;62.50;40.97;;;;;;;-1.77;100.00;101958.59;4967558;28;20029;-79
2023/12/03 06:08:43;;;;;;;65.20;40.92;;;;;;;-1.81;100.00;101964.66;4963818;28;20026;-79
2023/12/03 06:11:09;;;;;;;60.65;39.90;;;;;;;-1.85;100.00;101974.13;4991087;28;20026;-79
2023/12/03 06:13:34;;;;;;;60.63;39.42;;;;;;;-1.87;100.00;101970.69;4989290;28;20026;-79
2023/12/03 06:15:59;;;;;;;26.60;9.80;;;;;;;-1.78;100.00;101970.66;4988522;28;20045;-79
2023/12/03 06:18:25;;;;;;;35.13;11.93;;;;;;;-1.77;100.00;101976.66;4970178;28;20426;-79
2023/12/03 06:20:51;;;;;;;62.95;40.47;;;;;;;-1.91;100.00;101969.84;4988950;28;20037;-79
2023/12/03 06:23:17;;;;;;;31.60;11.50;;;;;;;-1.81;100.00;101980.13;4971828;28;20054;-79
2023/12/03 06:25:42;;;;;;;59.28;39.45;;;;;;;-1.91;100.00;101971.56;4989344;28;20419;-79
2023/12/03 06:28:08;;;;;;;65.35;40.58;;;;;;;-1.92;100.00;101978.47;4972417;28;20030;-79
2023/12/03 06:30:33;;;;;;;62.28;40.42;;;;;;;-1.90;100.00;101981.88;4988570;28;20495;-79
2023/12/03 06:32:59;;;;;;;29.40;11.25;;;;;;;-1.82;100.00;101970.66;4969404;28;20026;-79
2023/12/03 06:35:24;;;;;;;29.00;11.02;;;;;;;-1.80;100.00;101968.94;4973124;28;20486;-79
2023/12/03 06:37:49;;;;;;;61.70;38.80;;;;;;;-1.85;100.00;101965.53;4990177;28;20058;-79
2023/12/03 06:40:18;;;;;;;33.08;12.32;;;;;;;-1.79;100.00;101968.94;4971489;28;20025;-79
2023/12/03 06:42:43;;;;;;;60.72;38.92;;;;;;;-1.85;100.00;101962.94;4973105;28;20026;-79
2023/12/03 06:45:11;;;;;;;61.63;38.85;;;;;;;-1.87;100.00;101960.38;4972672;28;20034;-79
2023/12/03 06:47:36;;;;;;;61.45;39.28;;;;;;;-1.87;100.00;101965.53;4965534;28;20037;-79
2023/12/03 06:50:02;;;;;;;37.15;12.30;;;;;;;-1.80;100.00;101954.31;4971473;28;20022;-79
2023/12/03 06:52:28;;;;;;;62.97;39.75;;;;;;;-1.88;100.00;101962.97;4987968;28;20022;-79
2023/12/03 06:54:53;;;;;;;25.67;10.77;;;;;;;-1.81;100.00;101962.06;4989001;28;20045;-79
2023/12/03 06:57:21;;;;;;;59.50;39.25;;;;;;;-1.94;100.00;101958.69;4988354;28;20137;-79
2023/12/03 06:59:46;;;;;;;24.30;10.35;;;;;;;-1.86;100.00;101963.81;4976831;28;20109;-79
2023/12/03 07:02:11;;;;;;;61.58;38.58;;;;;;;-1.92;100.00;101955.25;4985693;28;20141;-78
2023/12/03 07:04:37;;;;;;;26.35;10.48;;;;;;;-1.85;100.00;101968.13;4988590;28;20072;-78
2023/12/03 07:07:04;;;;;;;24.13;9.77;;;;;;;-1.86;100.00;101956.94;4970929;28;20032;-79
2023/12/03 07:09:29;;;;;;;34.65;11.63;;;;;;;-1.89;100.00;101956.97;4966635;28;20076;-78
2023/12/03 07:11:55;;;;;;;32.67;11.43;;;;;;;-1.88;100.00;101965.53;4998608;28;20097;-78
2023/12/03 07:14:20;;;;;;;57.33;37.00;;;;;;;-1.96;100.00;101957.84;4987762;28;20022;-78
2023/12/03 07:16:46;;;;;;;61.58;38.47;;;;;;;-2.02;100.00;101966.44;4987085;28;20066;-78
2023/12/03 07:19:11;;;;;;;59.22;37.63;;;;;;;-1.99;100.00;101976.78;4989526;28;20034;-78
2023/12/03 07:21:36;;;;;;;29.90;10.02;;;;;;;-1.94;100.00;101971.59;4986457;28;20041;-78
2023/12/03 07:24:02;;;;;;;58.05;38.30;;;;;;;-2.03;100.00;101972.47;4985631;28;20530;-78
2023/12/03 07:26:27;;;;;;;57.13;38.35;;;;;;;-2.09;100.00;101964.75;4987964;28;20499;-79
2023/12/03 07:28:53;;;;;;;60.85;38.38;;;;;;;-2.08;100.00;101981.94;4978478;28;20057;-79
2023/12/03 07:31:18;;;;;;;62.95;38.67;;;;;;;-2.08;100.00;101981.94;4987164;28;20394;-79
2023/12/03 07:33:44;;;;;;;57.83;37.42;;;;;;;-2.07;100.00;101982.78;4988586;28;20414;-79
2023/12/03 07:36:10;;;;;;;60.22;38.28;;;;;;;-2.10;100.00;101988.81;4987728;28;20506;-79
2023/12/03 07:38:35;;;;;;;39.15;12.65;;;;;;;-2.00;100.00;101997.38;4971126;28;20590;-79
2023/12/03 07:41:01;;;;;;;26.83;9.88;;;;;;;-1.98;100.00;101993.97;4989075;28;20085;-79
2023/12/03 07:43:26;;;;;;;57.58;37.35;;;;;;;-2.04;100.00;101986.22;4989324;28;20036;-79
2023/12/03 07:45:52;;;;;;;54.67;36.95;;;;;;;-2.05;100.00;101986.22;4988064;28;20041;-79
2023/12/03 07:48:17;;;;;;;26.20;11.10;;;;;;;-1.96;100.00;101987.06;4970969;28;20041;-79
2023/12/03 07:50:42;;;;;;;27.73;11.00;;;;;;;-1.93;100.00;101988.78;4989675;28;20026;-79
2023/12/03 07:53:08;;;;;;;26.48;10.35;;;;;;;-1.93;100.00;101981.91;4989585;28;20113;-79
2023/12/03 07:55:33;;;;;;;55.95;36.72;;;;;;;-2.01;100.00;101985.34;4971497;28;20057;-79
2023/12/03 07:57:59;;;;;;;55.50;37.00;;;;;;;-2.02;100.00;101981.91;4974871;28;20048;-78
2023/12/03 08:00:24;;;;;;;35.05;11.75;;;;;;;-1.94;100.00;101985.34;4985052;28;20023;-79
2023/12/03 08:02:50;;;;;;;56.95;36.58;;;;;;;-1.99;100.00;101989.66;4956783;28;20015;-79
2023/12/03 08:05:18;;;;;;;20.17;8.98;;;;;;;-1.92;100.00;101988.78;4957846;28;20026;-78
2023/12/03 08:07:43;;;;;;;56.05;36.13;;;;;;;-1.98;100.00;101993.97;4969474;28;20057;-79
2023/12/03 08:10:09;;;;;;;55.47;36.80;;;;;;;-1.99;100.00;101996.53;4988899;28;20465;-79
2023/12/03 08:12:34;;;;;;;56.33;36.25;;;;;;;-1.97;100.00;102007.72;4971976;28;20408;-79
2023/12/03 08:15:00;;;;;;;55.22;35.28;;;;;;;-1.99;100.00;102007.72;4972398;28;20487;-79
2023/12/03 08:17:25;;;;;;;26.75;10.02;;;;;;;-1.87;100.00;102011.09;4983300;28;20046;-79
2023/12/03 08:19:51;;;;;;;57.00;37.15;;;;;;;-1.93;100.00;102010.28;4975263;28;20056;-79
2023/12/03 08:22:16;;;;;;;26.25;10.23;;;;;;;-1.82;100.00;102017.09;4992618;28;20425;-80
2023/12/03 08:24:41;;;;;;;53.13;35.25;;;;;;;-1.87;100.00;102004.22;4993622;28;20022;-79
2023/12/03 08:27:07;;;;;;;54.22;36.28;;;;;;;-1.83;100.00;102008.50;4972566;28;20504;-79
2023/12/03 08:29:32;;;;;;;53.88;35.83;;;;;;;-1.77;100.00;102012.78;4973789;28;20047;-79
2023/12/03 08:31:58;;;;;;;53.35;35.60;;;;;;;-1.76;100.00;102005.03;4984735;28;20449;-79
2023/12/03 08:34:23;;;;;;;53.47;34.95;;;;;;;-1.74;100.00;102012.75;4968911;28;20026;-79
2023/12/03 08:36:49;;;;;;;53.33;35.88;;;;;;;-1.71;100.00;102012.75;4993128;28;20050;-79
2023/12/03 08:39:14;;;;;;;48.08;33.60;;;;;;;-1.66;100.00;102018.72;4973748;28;20084;-79
2023/12/03 08:41:40;;;;;;;51.88;34.65;;;;;;;-1.63;100.00;102022.16;4992096;28;20081;-79
2023/12/03 08:44:05;;;;;;;49.72;34.22;;;;;;;-1.59;100.00;102023.03;4974388;28;20117;-79
2023/12/03 08:46:30;;;;;;;50.92;34.33;;;;;;;-1.54;100.00;102021.28;4990965;28;20097;-79
2023/12/03 08:48:56;;;;;;;30.17;10.85;;;;;;;-1.44;100.00;102028.09;4989562;28;20390;-79
2023/12/03 08:51:21;;;;;;;47.58;34.13;;;;;;;-1.42;100.00;102031.53;4988836;28;20025;-79
2023/12/03 08:53:48;;;;;;;47.80;32.90;;;;;;;-1.37;100.00;102023.75;4974964;28;20573;-79
2023/12/03 08:56:13;;;;;;;52.05;33.85;;;;;;;-1.29;100.00;102021.97;4973870;28;20157;-79
2023/12/03 08:58:42;;;;;;;47.85;32.97;;;;;;;-1.21;100.00;102034.81;4989467;28;20123;-79
2023/12/03 09:01:07;;;;;;;45.85;32.92;;;;;;;-1.20;100.00;102026.22;4974500;28;20504;-79
2023/12/03 09:03:37;;;;;;;50.63;33.10;;;;;;;-1.21;100.00;102034.81;4987044;28;20054;-79
2023/12/03 09:06:03;;;;;;;46.95;32.47;;;;;;;-1.21;100.00;102027.94;4972479;28;20526;-79
2023/12/03 09:08:28;;;;;;;44.95;30.45;;;;;;;-1.20;100.00;102032.28;4974220;28;20045;-79
2023/12/03 09:10:54;;;;;;;46.28;31.17;;;;;;;-1.21;100.00;102035.69;4977127;28;20433;-79
2023/12/03 09:13:19;;;;;;;46.15;31.58;;;;;;;-1.21;100.00;102034.81;4996649;28;20383;-79
2023/12/03 09:15:45;;;;;;;48.05;31.83;;;;;;;-1.21;100.00;102037.41;4983455;28;20113;-79
2023/12/03 09:18:10;;;;;;;43.08;30.67;;;;;;;-1.21;100.00;102035.69;4984633;28;20022;-79
2023/12/03 09:20:36;;;;;;;45.00;30.77;;;;;;;-1.21;100.00;102035.69;4975039;28;20474;-79
2023/12/03 09:23:01;;;;;;;46.00;31.45;;;;;;;-1.20;100.00;102036.53;4974111;28;20022;-78
2023/12/03 09:25:26;;;;;;;27.92;10.68;;;;;;;-1.11;100.00;102039.09;4990320;28;20526;-79
2023/12/03 09:27:52;;;;;;;41.50;28.98;;;;;;;-1.14;100.00;102036.53;4990261;28;20045;-79
2023/12/03 09:30:17;;;;;;;42.65;31.05;;;;;;;-1.09;100.00;102043.38;4990541;28;20096;-80
2023/12/03 09:32:43;;;;;;;43.03;29.70;;;;;;;-1.08;100.00;102041.66;4988955;28;20037;-77
2023/12/03 09:35:09;;;;;;;42.13;29.45;;;;;;;-1.06;100.00;102045.94;4989148;28;20073;-77
2023/12/03 09:37:34;;;;;;;40.30;29.02;;;;;;;-0.99;100.00;102026.09;4987809;28;20053;-77
2023/12/03 09:40:02;;;;;;;40.88;28.98;;;;;;;-0.95;100.00;102027.78;4991058;28;20053;-78
2023/12/03 09:42:29;;;;;;;43.33;30.38;;;;;;;-0.91;100.00;102028.59;4989592;28;20038;-78
2023/12/03 09:45:04;;;;;;;36.42;26.98;;;;;;;-0.87;100.00;102025.13;4985535;28;20030;-78
2023/12/03 09:47:33;;;;;;;43.60;29.23;;;;;;;-0.83;100.00;102026.81;4970818;28;20044;-78
2023/12/03 09:50:00;;;;;;;36.20;26.88;;;;;;;-0.80;100.00;102017.34;4990152;28;20034;-78
2023/12/03 09:52:29;;;;;;;16.63;7.35;;;;;;;-0.67;100.00;102024.09;4966676;28;20100;-78
2023/12/03 09:54:58;;;;;;;24.15;8.32;;;;;;;-0.63;100.00;102020.63;4987414;28;20101;-78
2023/12/03 09:57:29;;;;;;;24.10;9.35;;;;;;;-0.58;100.00;102028.34;4974227;28;20030;-79
2023/12/03 09:59:58;;;;;;;36.78;26.83;;;;;;;-0.61;100.00;102022.34;4989734;28;20026;-79
2023/12/03 10:02:26;;;;;;;22.67;8.73;;;;;;;-0.50;100.00;102025.66;4989520;28;20105;-79
2023/12/03 10:04:53;;;;;;;36.65;27.05;;;;;;;-0.55;100.00;102022.28;4972390;28;20438;-79
2023/12/03 10:07:21;;;;;;;36.80;27.13;;;;;;;-0.51;100.00;102018.78;4991262;28;20092;-79
2023/12/03 10:09:47;;;;;;;36.13;26.80;;;;;;;-0.49;100.00;102017.91;4985275;28;20089;-79
2023/12/03 10:12:16;;;;;;;38.03;27.20;;;;;;;-0.45;100.00;102018.72;4989848;28;20034;-79
2023/12/03 10:14:42;;;;;;;37.30;26.80;;;;;;;-0.41;100.00;102018.69;4987540;28;20030;-79
2023/12/03 10:17:08;;;;;;;36.67;26.90;;;;;;;-0.36;100.00;102010.91;4976087;28;20537;-79
2023/12/03 10:19:33;;;;;;;35.70;25.70;;;;;;;-0.35;100.00;102010.88;4990349;28;20114;-79
2023/12/03 10:21:59;;;;;;;34.55;26.15;;;;;;;-0.31;100.00;102006.53;4972922;28;20018;-80
2023/12/03 10:24:25;;;;;;;35.13;26.08;;;;;;;-0.29;100.00;102002.22;4970864;28;20497;-80
2023/12/03 10:26:51;;;;;;;33.05;24.95;;;;;;;-0.25;100.00;102001.31;4982267;28;20031;-80
2023/12/03 10:29:19;;;;;;;32.80;25.17;;;;;;;-0.20;100.00;102002.09;4970743;28;20042;-80
2023/12/03 10:31:48;;;;;;;33.55;24.92;;;;;;;-0.15;100.00;102002.91;4973998;28;20049;-79
2023/12/03 10:34:14;;;;;;;34.22;25.55;;;;;;;-0.11;100.00;101999.41;4988882;28;20109;-79
2023/12/03 10:36:42;;;;;;;34.28;25.05;;;;;;;-0.04;100.00;102001.03;4971195;28;20510;-79
2023/12/03 10:39:08;;;;;;;33.03;24.10;;;;;;;0.03;100.00;101994.09;4989549;28;20030;-79
2023/12/03 10:41:33;;;;;;;32.70;24.20;;;;;;;0.07;100.00;101988.00;4989808;28;20014;-79
2023/12/03 10:43:59;;;;;;;30.58;23.55;;;;;;;0.14;100.00;101984.47;4967956;28;20070;-79
2023/12/03 10:46:24;;;;;;;30.90;23.50;;;;;;;0.21;100.00;101974.88;4976538;28;20029;-79
2023/12/03 10:48:51;;;;;;;31.77;23.75;;;;;;;0.28;100.00;101971.34;4985367;28;20023;-79
2023/12/03 10:51:18;;;;;;;31.05;23.25;;;;;;;0.38;100.00;101977.22;4990034;28;20022;-79
2023/12/03 10:53:44;;;;;;;29.83;22.88;;;;;;;0.47;100.00;101969.38;4989103;28;20034;-79
2023/12/03 10:56:10;;;;;;;30.23;23.17;;;;;;;0.54;100.00;101978.75;4989606;28;20060;-79
2023/12/03 10:58:39;;;;;;;28.38;21.83;;;;;;;0.66;100.00;101977.72;4989489;28;20030;-79